sensor_id;sensor_type;location;lat;lon;timestamp;temperature;humidity
11229;DHT22;5671;47.936;8.716;2022-09-09T00:01:02;10.50;78.40
11229;DHT22;5671;47.936;8.716;2022-09-09T00:03:50;10.50;76.20
11229;DHT22;5671;47.936;8.716;2022-09-09T00:07:03;10.50;78.00
11229;DHT22;5671;47.936;8.716;2022-09-09T00:09:21;10.50;76.30
11229;DHT22;5671;47.936;8.716;2022-09-09T00:11:52;10.40;77.00
11229;DHT22;5671;47.936;8.716;2022-09-09T00:14:33;10.40;75.80
11229;DHT22;5671;47.936;8.716;2022-09-09T00:17:08;10.40;75.90
11229;DHT22;5671;47.936;8.716;2022-09-09T00:19:40;10.30;76.00
11229;DHT22;5671;47.936;8.716;2022-09-09T00:22:16;10.30;77.60
11229;DHT22;5671;47.936;8.716;2022-09-09T00:24:50;10.20;76.10
11229;DHT22;5671;47.936;8.716;2022-09-09T00:27:26;10.20;76.40
11229;DHT22;5671;47.936;8.716;2022-09-09T00:30:16;10.20;77.30
11229;DHT22;5671;47.936;8.716;2022-09-09T00:32:58;10.10;76.30
11229;DHT22;5671;47.936;8.716;2022-09-09T00:35:40;10.10;77.00
11229;DHT22;5671;47.936;8.716;2022-09-09T00:38:12;10.10;78.20
11229;DHT22;5671;47.936;8.716;2022-09-09T00:40:45;10.00;77.30
11229;DHT22;5671;47.936;8.716;2022-09-09T00:43:26;10.00;77.90
11229;DHT22;5671;47.936;8.716;2022-09-09T00:46:14;10.00;77.90
11229;DHT22;5671;47.936;8.716;2022-09-09T00:48:57;10.00;77.20
11229;DHT22;5671;47.936;8.716;2022-09-09T00:51:44;10.00;77.30
11229;DHT22;5671;47.936;8.716;2022-09-09T00:54:30;10.00;77.20
11229;DHT22;5671;47.936;8.716;2022-09-09T00:57:27;10.00;77.20
11229;DHT22;5671;47.936;8.716;2022-09-09T01:00:00;9.90;78.00
11229;DHT22;5671;47.936;8.716;2022-09-09T01:02:37;9.90;78.00
11229;DHT22;5671;47.936;8.716;2022-09-09T01:05:13;10.00;78.80
11229;DHT22;5671;47.936;8.716;2022-09-09T01:07:47;10.00;78.50
11229;DHT22;5671;47.936;8.716;2022-09-09T01:10:26;10.00;78.40
11229;DHT22;5671;47.936;8.716;2022-09-09T01:12:58;10.00;78.00
11229;DHT22;5671;47.936;8.716;2022-09-09T01:15:29;10.00;78.90
11229;DHT22;5671;47.936;8.716;2022-09-09T01:18:01;10.00;78.00
11229;DHT22;5671;47.936;8.716;2022-09-09T01:20:52;10.00;80.50
11229;DHT22;5671;47.936;8.716;2022-09-09T01:26:36;10.00;79.20
11229;DHT22;5671;47.936;8.716;2022-09-09T01:29:17;10.10;79.90
11229;DHT22;5671;47.936;8.716;2022-09-09T01:32:35;10.10;78.90
11229;DHT22;5671;47.936;8.716;2022-09-09T01:35:13;10.20;79.10
11229;DHT22;5671;47.936;8.716;2022-09-09T01:38:19;10.20;81.10
11229;DHT22;5671;47.936;8.716;2022-09-09T01:40:58;10.20;81.00
11229;DHT22;5671;47.936;8.716;2022-09-09T01:43:29;10.30;79.90
11229;DHT22;5671;47.936;8.716;2022-09-09T01:46:11;10.30;79.10
11229;DHT22;5671;47.936;8.716;2022-09-09T01:48:50;10.30;80.50
11229;DHT22;5671;47.936;8.716;2022-09-09T01:51:20;10.40;80.00
11229;DHT22;5671;47.936;8.716;2022-09-09T01:53:50;10.30;79.00
11229;DHT22;5671;47.936;8.716;2022-09-09T01:56:36;10.40;79.30
11229;DHT22;5671;47.936;8.716;2022-09-09T01:59:29;10.40;78.40
11229;DHT22;5671;47.936;8.716;2022-09-09T02:02:11;10.40;80.50
11229;DHT22;5671;47.936;8.716;2022-09-09T02:04:47;10.40;81.50
11229;DHT22;5671;47.936;8.716;2022-09-09T02:07:30;10.40;80.80
11229;DHT22;5671;47.936;8.716;2022-09-09T02:10:11;10.50;81.00
11229;DHT22;5671;47.936;8.716;2022-09-09T02:12:42;10.50;80.30
11229;DHT22;5671;47.936;8.716;2022-09-09T02:15:28;10.50;81.40
11229;DHT22;5671;47.936;8.716;2022-09-09T02:18:04;10.60;81.00
11229;DHT22;5671;47.936;8.716;2022-09-09T02:20:34;10.60;80.30
11229;DHT22;5671;47.936;8.716;2022-09-09T02:23:02;10.60;81.50
11229;DHT22;5671;47.936;8.716;2022-09-09T02:25:30;10.60;82.00
11229;DHT22;5671;47.936;8.716;2022-09-09T02:27:59;10.70;81.90
11229;DHT22;5671;47.936;8.716;2022-09-09T02:30:28;10.60;81.20
11229;DHT22;5671;47.936;8.716;2022-09-09T02:32:58;10.70;82.40
11229;DHT22;5671;47.936;8.716;2022-09-09T02:35:28;10.70;81.90
11229;DHT22;5671;47.936;8.716;2022-09-09T02:37:59;10.80;81.70
11229;DHT22;5671;47.936;8.716;2022-09-09T02:40:26;10.80;82.70
11229;DHT22;5671;47.936;8.716;2022-09-09T02:42:54;10.80;83.20
11229;DHT22;5671;47.936;8.716;2022-09-09T02:45:25;10.80;83.00
11229;DHT22;5671;47.936;8.716;2022-09-09T02:48:01;10.80;81.60
11229;DHT22;5671;47.936;8.716;2022-09-09T02:50:33;10.80;83.30
11229;DHT22;5671;47.936;8.716;2022-09-09T02:53:06;10.90;82.40
11229;DHT22;5671;47.936;8.716;2022-09-09T02:55:39;10.90;81.90
11229;DHT22;5671;47.936;8.716;2022-09-09T02:58:10;10.90;82.40
11229;DHT22;5671;47.936;8.716;2022-09-09T03:00:39;10.90;81.10
11229;DHT22;5671;47.936;8.716;2022-09-09T03:03:08;10.90;80.60
11229;DHT22;5671;47.936;8.716;2022-09-09T03:05:35;10.90;82.30
11229;DHT22;5671;47.936;8.716;2022-09-09T03:08:02;10.90;82.70
11229;DHT22;5671;47.936;8.716;2022-09-09T03:10:29;10.90;82.90
11229;DHT22;5671;47.936;8.716;2022-09-09T03:12:56;10.90;82.60
11229;DHT22;5671;47.936;8.716;2022-09-09T03:15:23;10.90;81.60
11229;DHT22;5671;47.936;8.716;2022-09-09T03:17:55;10.90;81.80
11229;DHT22;5671;47.936;8.716;2022-09-09T03:20:24;11.00;81.40
11229;DHT22;5671;47.936;8.716;2022-09-09T03:22:52;10.90;81.50
11229;DHT22;5671;47.936;8.716;2022-09-09T03:25:19;11.00;82.30
11229;DHT22;5671;47.936;8.716;2022-09-09T03:27:46;11.00;80.40
11229;DHT22;5671;47.936;8.716;2022-09-09T03:30:13;11.00;80.30
11229;DHT22;5671;47.936;8.716;2022-09-09T03:32:40;11.00;80.30
11229;DHT22;5671;47.936;8.716;2022-09-09T03:35:08;11.00;80.50
11229;DHT22;5671;47.936;8.716;2022-09-09T03:37:36;11.00;82.00
11229;DHT22;5671;47.936;8.716;2022-09-09T03:40:04;11.00;81.10
11229;DHT22;5671;47.936;8.716;2022-09-09T03:42:31;11.00;81.90
11229;DHT22;5671;47.936;8.716;2022-09-09T03:44:58;11.00;81.00
11229;DHT22;5671;47.936;8.716;2022-09-09T03:47:28;11.00;80.90
11229;DHT22;5671;47.936;8.716;2022-09-09T03:49:55;11.00;80.40
11229;DHT22;5671;47.936;8.716;2022-09-09T03:52:22;11.00;80.40
11229;DHT22;5671;47.936;8.716;2022-09-09T03:54:53;11.00;80.10
11229;DHT22;5671;47.936;8.716;2022-09-09T03:57:20;11.00;81.00
11229;DHT22;5671;47.936;8.716;2022-09-09T03:59:47;11.00;81.10
11229;DHT22;5671;47.936;8.716;2022-09-09T04:02:14;11.00;81.80
11229;DHT22;5671;47.936;8.716;2022-09-09T04:04:41;11.00;81.40
11229;DHT22;5671;47.936;8.716;2022-09-09T04:07:08;11.00;82.10
11229;DHT22;5671;47.936;8.716;2022-09-09T04:09:35;11.00;81.70
11229;DHT22;5671;47.936;8.716;2022-09-09T04:12:04;11.00;81.60
11229;DHT22;5671;47.936;8.716;2022-09-09T04:14:31;11.00;81.20
11229;DHT22;5671;47.936;8.716;2022-09-09T04:16:58;11.10;82.10
11229;DHT22;5671;47.936;8.716;2022-09-09T04:19:31;11.10;81.80
11229;DHT22;5671;47.936;8.716;2022-09-09T04:21:58;11.10;82.30
11229;DHT22;5671;47.936;8.716;2022-09-09T04:24:25;11.10;83.00
11229;DHT22;5671;47.936;8.716;2022-09-09T04:26:52;11.10;83.50
11229;DHT22;5671;47.936;8.716;2022-09-09T04:29:21;11.10;82.80
11229;DHT22;5671;47.936;8.716;2022-09-09T04:31:48;11.10;81.80
11229;DHT22;5671;47.936;8.716;2022-09-09T04:34:15;11.10;82.10
11229;DHT22;5671;47.936;8.716;2022-09-09T04:36:47;11.20;82.70
11229;DHT22;5671;47.936;8.716;2022-09-09T04:39:24;11.20;83.20
11229;DHT22;5671;47.936;8.716;2022-09-09T04:41:51;11.20;83.50
11229;DHT22;5671;47.936;8.716;2022-09-09T04:44:18;11.20;83.60
11229;DHT22;5671;47.936;8.716;2022-09-09T04:46:47;11.20;81.90
11229;DHT22;5671;47.936;8.716;2022-09-09T04:49:14;11.20;82.30
11229;DHT22;5671;47.936;8.716;2022-09-09T04:51:41;11.20;83.20
11229;DHT22;5671;47.936;8.716;2022-09-09T04:54:10;11.30;82.10
11229;DHT22;5671;47.936;8.716;2022-09-09T04:56:37;11.30;82.10
11229;DHT22;5671;47.936;8.716;2022-09-09T04:59:04;11.30;81.80
11229;DHT22;5671;47.936;8.716;2022-09-09T05:01:31;11.30;81.50
11229;DHT22;5671;47.936;8.716;2022-09-09T05:03:59;11.30;81.90
11229;DHT22;5671;47.936;8.716;2022-09-09T05:06:26;11.30;82.40
11229;DHT22;5671;47.936;8.716;2022-09-09T05:08:54;11.30;82.80
11229;DHT22;5671;47.936;8.716;2022-09-09T05:11:23;11.40;82.80
11229;DHT22;5671;47.936;8.716;2022-09-09T05:13:52;11.40;83.00
11229;DHT22;5671;47.936;8.716;2022-09-09T05:16:19;11.40;82.30
11229;DHT22;5671;47.936;8.716;2022-09-09T05:18:47;11.40;82.30
11229;DHT22;5671;47.936;8.716;2022-09-09T05:21:16;11.40;81.90
11229;DHT22;5671;47.936;8.716;2022-09-09T05:23:44;11.40;81.90
11229;DHT22;5671;47.936;8.716;2022-09-09T05:26:14;11.40;82.40
11229;DHT22;5671;47.936;8.716;2022-09-09T05:28:42;11.50;82.50
11229;DHT22;5671;47.936;8.716;2022-09-09T05:31:10;11.50;83.00
11229;DHT22;5671;47.936;8.716;2022-09-09T05:33:39;11.50;83.80
11229;DHT22;5671;47.936;8.716;2022-09-09T05:36:08;11.50;82.20
11229;DHT22;5671;47.936;8.716;2022-09-09T05:38:37;11.60;82.20
11229;DHT22;5671;47.936;8.716;2022-09-09T05:41:04;11.60;82.00
11229;DHT22;5671;47.936;8.716;2022-09-09T05:43:31;11.60;82.70
11229;DHT22;5671;47.936;8.716;2022-09-09T05:45:59;11.60;82.50
11229;DHT22;5671;47.936;8.716;2022-09-09T05:48:28;11.60;83.50
11229;DHT22;5671;47.936;8.716;2022-09-09T05:50:56;11.60;83.20
11229;DHT22;5671;47.936;8.716;2022-09-09T05:53:23;11.70;83.00
11229;DHT22;5671;47.936;8.716;2022-09-09T05:55:59;11.70;82.60
11229;DHT22;5671;47.936;8.716;2022-09-09T05:58:26;11.70;83.50
11229;DHT22;5671;47.936;8.716;2022-09-09T06:00:59;11.70;84.10
11229;DHT22;5671;47.936;8.716;2022-09-09T06:03:27;11.70;83.00
11229;DHT22;5671;47.936;8.716;2022-09-09T06:05:57;11.80;84.00
11229;DHT22;5671;47.936;8.716;2022-09-09T06:08:25;11.90;83.80
11229;DHT22;5671;47.936;8.716;2022-09-09T06:10:53;11.90;85.00
11229;DHT22;5671;47.936;8.716;2022-09-09T06:13:21;12.00;85.20
11229;DHT22;5671;47.936;8.716;2022-09-09T06:15:50;12.10;84.80
11229;DHT22;5671;47.936;8.716;2022-09-09T06:18:17;12.20;86.00
11229;DHT22;5671;47.936;8.716;2022-09-09T06:20:53;12.30;86.00
11229;DHT22;5671;47.936;8.716;2022-09-09T06:23:21;12.30;85.20
11229;DHT22;5671;47.936;8.716;2022-09-09T06:25:48;12.40;84.50
11229;DHT22;5671;47.936;8.716;2022-09-09T06:28:17;12.50;85.30
11229;DHT22;5671;47.936;8.716;2022-09-09T06:30:44;12.50;84.60
11229;DHT22;5671;47.936;8.716;2022-09-09T06:33:12;12.60;85.00
11229;DHT22;5671;47.936;8.716;2022-09-09T06:35:39;12.70;85.50
11229;DHT22;5671;47.936;8.716;2022-09-09T06:38:06;12.80;85.60
11229;DHT22;5671;47.936;8.716;2022-09-09T06:40:34;12.80;84.60
11229;DHT22;5671;47.936;8.716;2022-09-09T06:43:01;12.90;84.70
11229;DHT22;5671;47.936;8.716;2022-09-09T06:45:29;12.90;83.80
11229;DHT22;5671;47.936;8.716;2022-09-09T06:47:57;13.00;83.30
11229;DHT22;5671;47.936;8.716;2022-09-09T06:50:24;13.10;84.00
11229;DHT22;5671;47.936;8.716;2022-09-09T06:52:50;13.20;83.20
11229;DHT22;5671;47.936;8.716;2022-09-09T06:55:18;13.20;83.40
11229;DHT22;5671;47.936;8.716;2022-09-09T06:57:46;13.30;84.30
11229;DHT22;5671;47.936;8.716;2022-09-09T07:00:14;13.40;83.80
11229;DHT22;5671;47.936;8.716;2022-09-09T07:02:42;13.50;84.20
11229;DHT22;5671;47.936;8.716;2022-09-09T07:05:09;13.60;83.60
11229;DHT22;5671;47.936;8.716;2022-09-09T07:07:37;13.60;84.40
11229;DHT22;5671;47.936;8.716;2022-09-09T07:10:05;13.70;83.10
11229;DHT22;5671;47.936;8.716;2022-09-09T07:12:35;13.80;82.30
11229;DHT22;5671;47.936;8.716;2022-09-09T07:15:03;13.80;83.10
11229;DHT22;5671;47.936;8.716;2022-09-09T07:17:30;13.90;83.20
11229;DHT22;5671;47.936;8.716;2022-09-09T07:20:12;13.90;81.30
11229;DHT22;5671;47.936;8.716;2022-09-09T07:22:40;14.00;83.30
11229;DHT22;5671;47.936;8.716;2022-09-09T07:25:07;14.10;81.40
11229;DHT22;5671;47.936;8.716;2022-09-09T07:27:37;14.20;82.70
11229;DHT22;5671;47.936;8.716;2022-09-09T07:30:10;14.40;83.10
11229;DHT22;5671;47.936;8.716;2022-09-09T07:32:40;14.40;82.70
11229;DHT22;5671;47.936;8.716;2022-09-09T07:35:09;14.50;82.20
11229;DHT22;5671;47.936;8.716;2022-09-09T07:37:36;14.60;81.40
11229;DHT22;5671;47.936;8.716;2022-09-09T07:40:04;14.70;80.20
11229;DHT22;5671;47.936;8.716;2022-09-09T07:42:31;14.80;79.40
11229;DHT22;5671;47.936;8.716;2022-09-09T07:44:58;14.70;79.00
11229;DHT22;5671;47.936;8.716;2022-09-09T07:47:25;14.80;79.90
11229;DHT22;5671;47.936;8.716;2022-09-09T07:49:52;14.80;79.50
11229;DHT22;5671;47.936;8.716;2022-09-09T07:52:21;14.80;80.60
11229;DHT22;5671;47.936;8.716;2022-09-09T07:54:48;14.80;80.90
11229;DHT22;5671;47.936;8.716;2022-09-09T07:57:15;14.90;80.20
11229;DHT22;5671;47.936;8.716;2022-09-09T07:59:42;14.90;80.90
11229;DHT22;5671;47.936;8.716;2022-09-09T08:02:09;14.90;79.70
11229;DHT22;5671;47.936;8.716;2022-09-09T08:04:36;15.00;79.60
11229;DHT22;5671;47.936;8.716;2022-09-09T08:07:03;15.00;79.80
11229;DHT22;5671;47.936;8.716;2022-09-09T08:09:32;15.00;80.00
11229;DHT22;5671;47.936;8.716;2022-09-09T08:11:59;15.00;79.70
11229;DHT22;5671;47.936;8.716;2022-09-09T08:14:26;15.00;79.90
11229;DHT22;5671;47.936;8.716;2022-09-09T08:16:53;15.00;79.40
11229;DHT22;5671;47.936;8.716;2022-09-09T08:19:21;15.00;78.50
11229;DHT22;5671;47.936;8.716;2022-09-09T08:21:49;15.00;78.60
11229;DHT22;5671;47.936;8.716;2022-09-09T08:24:19;15.10;78.50
11229;DHT22;5671;47.936;8.716;2022-09-09T08:26:48;15.10;80.40
11229;DHT22;5671;47.936;8.716;2022-09-09T08:29:16;15.30;78.70
11229;DHT22;5671;47.936;8.716;2022-09-09T08:31:47;15.30;77.90
11229;DHT22;5671;47.936;8.716;2022-09-09T08:34:15;15.30;76.80
11229;DHT22;5671;47.936;8.716;2022-09-09T08:36:44;15.40;78.10
11229;DHT22;5671;47.936;8.716;2022-09-09T08:39:16;15.40;78.00
11229;DHT22;5671;47.936;8.716;2022-09-09T08:42:13;15.30;78.70
11229;DHT22;5671;47.936;8.716;2022-09-09T08:45:03;15.30;79.80
11229;DHT22;5671;47.936;8.716;2022-09-09T08:47:42;15.40;80.90
11229;DHT22;5671;47.936;8.716;2022-09-09T08:50:18;15.50;82.00
11229;DHT22;5671;47.936;8.716;2022-09-09T08:52:53;15.50;79.00
11229;DHT22;5671;47.936;8.716;2022-09-09T08:55:25;15.60;78.90
11229;DHT22;5671;47.936;8.716;2022-09-09T08:57:57;15.70;78.60
11229;DHT22;5671;47.936;8.716;2022-09-09T09:00:31;15.70;74.90
11229;DHT22;5671;47.936;8.716;2022-09-09T09:03:09;15.70;76.80
11229;DHT22;5671;47.936;8.716;2022-09-09T09:05:46;15.80;77.50
11229;DHT22;5671;47.936;8.716;2022-09-09T09:08:20;15.80;76.50
11229;DHT22;5671;47.936;8.716;2022-09-09T09:11:13;15.90;76.60
11229;DHT22;5671;47.936;8.716;2022-09-09T09:13:45;15.90;77.30
11229;DHT22;5671;47.936;8.716;2022-09-09T09:19:04;16.10;76.60
11229;DHT22;5671;47.936;8.716;2022-09-09T09:21:38;16.20;74.60
11229;DHT22;5671;47.936;8.716;2022-09-09T09:24:15;16.20;73.30
11229;DHT22;5671;47.936;8.716;2022-09-09T09:26:43;16.30;74.20
11229;DHT22;5671;47.936;8.716;2022-09-09T09:29:14;16.40;73.80
11229;DHT22;5671;47.936;8.716;2022-09-09T09:31:44;16.50;74.20
11229;DHT22;5671;47.936;8.716;2022-09-09T09:34:13;16.50;72.80
11229;DHT22;5671;47.936;8.716;2022-09-09T09:36:42;16.50;70.20
11229;DHT22;5671;47.936;8.716;2022-09-09T09:39:23;16.50;70.50
11229;DHT22;5671;47.936;8.716;2022-09-09T09:41:51;16.50;69.90
11229;DHT22;5671;47.936;8.716;2022-09-09T09:44:25;16.50;70.20
11229;DHT22;5671;47.936;8.716;2022-09-09T09:46:53;16.50;69.90
11229;DHT22;5671;47.936;8.716;2022-09-09T09:49:26;16.50;71.20
11229;DHT22;5671;47.936;8.716;2022-09-09T09:51:53;16.70;71.40
11229;DHT22;5671;47.936;8.716;2022-09-09T09:54:28;16.80;72.60
11229;DHT22;5671;47.936;8.716;2022-09-09T09:57:09;17.00;69.20
11229;DHT22;5671;47.936;8.716;2022-09-09T09:59:44;17.30;67.10
11229;DHT22;5671;47.936;8.716;2022-09-09T10:05:46;18.00;66.00
11229;DHT22;5671;47.936;8.716;2022-09-09T10:08:45;18.70;68.00
11229;DHT22;5671;47.936;8.716;2022-09-09T10:11:41;19.00;62.00
11229;DHT22;5671;47.936;8.716;2022-09-09T10:14:29;19.50;57.10
11229;DHT22;5671;47.936;8.716;2022-09-09T10:17:11;20.00;58.70
11229;DHT22;5671;47.936;8.716;2022-09-09T10:20:14;20.30;53.70
11229;DHT22;5671;47.936;8.716;2022-09-09T10:23:29;20.30;54.30
11229;DHT22;5671;47.936;8.716;2022-09-09T10:26:44;20.30;53.70
11229;DHT22;5671;47.936;8.716;2022-09-09T10:33:04;20.00;51.60
11229;DHT22;5671;47.936;8.716;2022-09-09T10:36:02;19.80;52.10
11229;DHT22;5671;47.936;8.716;2022-09-09T10:38:41;19.50;53.70
11229;DHT22;5671;47.936;8.716;2022-09-09T10:45:07;19.00;53.40
11229;DHT22;5671;47.936;8.716;2022-09-09T10:48:07;19.30;53.80
11229;DHT22;5671;47.936;8.716;2022-09-09T10:54:17;20.20;48.90
11229;DHT22;5671;47.936;8.716;2022-09-09T11:01:09;21.50;49.00
11229;DHT22;5671;47.936;8.716;2022-09-09T11:04:05;22.10;46.70
11229;DHT22;5671;47.936;8.716;2022-09-09T11:06:54;22.60;46.30
11229;DHT22;5671;47.936;8.716;2022-09-09T11:10:01;23.10;45.50
11229;DHT22;5671;47.936;8.716;2022-09-09T11:12:50;23.60;44.10
11229;DHT22;5671;47.936;8.716;2022-09-09T11:15:40;24.00;43.20
11229;DHT22;5671;47.936;8.716;2022-09-09T11:19:37;24.40;43.00
11229;DHT22;5671;47.936;8.716;2022-09-09T11:21:40;24.60;44.40
11229;DHT22;5671;47.936;8.716;2022-09-09T11:25:24;24.80;43.00
11229;DHT22;5671;47.936;8.716;2022-09-09T11:29:20;25.30;42.40
11229;DHT22;5671;47.936;8.716;2022-09-09T11:32:08;25.40;42.80
11229;DHT22;5671;47.936;8.716;2022-09-09T11:35:12;25.30;42.00
11229;DHT22;5671;47.936;8.716;2022-09-09T11:41:04;24.80;39.80
11229;DHT22;5671;47.936;8.716;2022-09-09T11:44:21;24.90;40.90
11229;DHT22;5671;47.936;8.716;2022-09-09T11:54:32;25.20;40.00
11229;DHT22;5671;47.936;8.716;2022-09-09T12:08:18;26.10;39.00
11229;DHT22;5671;47.936;8.716;2022-09-09T12:14:43;26.60;37.50
11229;DHT22;5671;47.936;8.716;2022-09-09T12:31:36;26.20;38.50
11229;DHT22;5671;47.936;8.716;2022-09-09T12:56:44;28.10;38.50
11229;DHT22;5671;47.936;8.716;2022-09-09T13:10:23;27.00;38.50
11229;DHT22;5671;47.936;8.716;2022-09-09T13:30:28;27.50;38.70
11229;DHT22;5671;47.936;8.716;2022-09-09T13:40:34;28.30;37.50
11229;DHT22;5671;47.936;8.716;2022-09-09T13:43:42;28.60;34.80
11229;DHT22;5671;47.936;8.716;2022-09-09T14:07:24;27.30;37.10
11229;DHT22;5671;47.936;8.716;2022-09-09T14:10:38;27.40;36.30
11229;DHT22;5671;47.936;8.716;2022-09-09T14:20:50;27.90;36.30
11229;DHT22;5671;47.936;8.716;2022-09-09T14:33:23;27.10;34.10
11229;DHT22;5671;47.936;8.716;2022-09-09T14:36:26;26.30;36.50
11229;DHT22;5671;47.936;8.716;2022-09-09T14:49:30;23.20;43.40
11229;DHT22;5671;47.936;8.716;2022-09-09T15:57:55;21.10;46.70
11229;DHT22;5671;47.936;8.716;2022-09-09T17:41:22;16.80;57.60
11229;DHT22;5671;47.936;8.716;2022-09-09T17:44:11;16.70;57.90
11229;DHT22;5671;47.936;8.716;2022-09-09T17:47:07;16.70;58.30
11229;DHT22;5671;47.936;8.716;2022-09-09T18:03:47;16.50;59.80
11229;DHT22;5671;47.936;8.716;2022-09-09T18:06:43;16.20;60.60
11229;DHT22;5671;47.936;8.716;2022-09-09T18:12:33;16.10;61.60
11229;DHT22;5671;47.936;8.716;2022-09-09T18:15:06;16.10;62.80
11229;DHT22;5671;47.936;8.716;2022-09-09T18:27:31;15.70;62.60
11229;DHT22;5671;47.936;8.716;2022-09-09T18:36:50;15.50;64.50
11229;DHT22;5671;47.936;8.716;2022-09-09T18:39:31;15.30;64.20
11229;DHT22;5671;47.936;8.716;2022-09-09T18:42:02;15.20;63.90
11229;DHT22;5671;47.936;8.716;2022-09-09T18:44:33;15.10;63.70
11229;DHT22;5671;47.936;8.716;2022-09-09T18:47:03;15.00;65.70
11229;DHT22;5671;47.936;8.716;2022-09-09T19:03:59;14.40;67.00
11229;DHT22;5671;47.936;8.716;2022-09-09T19:10:23;14.10;67.70
11229;DHT22;5671;47.936;8.716;2022-09-09T19:12:59;14.00;68.70
11229;DHT22;5671;47.936;8.716;2022-09-09T19:15:41;13.90;68.90
11229;DHT22;5671;47.936;8.716;2022-09-09T19:18:54;13.80;69.60
11229;DHT22;5671;47.936;8.716;2022-09-09T19:22:53;13.70;69.20
11229;DHT22;5671;47.936;8.716;2022-09-09T19:25:44;13.60;69.60
11229;DHT22;5671;47.936;8.716;2022-09-09T19:28:31;13.50;70.40
11229;DHT22;5671;47.936;8.716;2022-09-09T19:31:10;13.30;69.00
11229;DHT22;5671;47.936;8.716;2022-09-09T19:34:24;13.30;70.00
11229;DHT22;5671;47.936;8.716;2022-09-09T19:40:05;13.10;70.90
11229;DHT22;5671;47.936;8.716;2022-09-09T19:42:38;13.00;71.10
11229;DHT22;5671;47.936;8.716;2022-09-09T19:45:16;13.00;71.40
11229;DHT22;5671;47.936;8.716;2022-09-09T19:51:36;12.80;71.20
11229;DHT22;5671;47.936;8.716;2022-09-09T19:54:57;12.80;71.40
11229;DHT22;5671;47.936;8.716;2022-09-09T20:01:33;12.60;72.00
11229;DHT22;5671;47.936;8.716;2022-09-09T20:04:01;12.60;71.90
11229;DHT22;5671;47.936;8.716;2022-09-09T20:26:14;12.40;72.60
11229;DHT22;5671;47.936;8.716;2022-09-09T20:29:10;12.40;72.40
11229;DHT22;5671;47.936;8.716;2022-09-09T20:31:42;12.30;72.70
11229;DHT22;5671;47.936;8.716;2022-09-09T20:34:35;12.30;72.50
11229;DHT22;5671;47.936;8.716;2022-09-09T20:40:40;12.20;72.20
11229;DHT22;5671;47.936;8.716;2022-09-09T20:43:13;12.20;71.50
11229;DHT22;5671;47.936;8.716;2022-09-09T20:45:43;12.10;72.10
11229;DHT22;5671;47.936;8.716;2022-09-09T20:48:17;12.10;72.90
11229;DHT22;5671;47.936;8.716;2022-09-09T20:51:01;12.00;73.80
11229;DHT22;5671;47.936;8.716;2022-09-09T20:54:12;12.00;73.60
11229;DHT22;5671;47.936;8.716;2022-09-09T21:00:29;11.90;73.50
11229;DHT22;5671;47.936;8.716;2022-09-09T21:03:14;11.90;73.90
11229;DHT22;5671;47.936;8.716;2022-09-09T21:16:09;11.80;73.70
11229;DHT22;5671;47.936;8.716;2022-09-09T21:20:35;11.70;73.20
11229;DHT22;5671;47.936;8.716;2022-09-09T21:22:49;11.70;74.20
11229;DHT22;5671;47.936;8.716;2022-09-09T21:25:41;11.70;74.80
11229;DHT22;5671;47.936;8.716;2022-09-09T21:52:17;11.60;73.40
11229;DHT22;5671;47.936;8.716;2022-09-09T22:02:15;11.50;74.70
11229;DHT22;5671;47.936;8.716;2022-09-09T22:25:19;11.30;76.20
11229;DHT22;5671;47.936;8.716;2022-09-09T22:35:04;11.20;76.80
11229;DHT22;5671;47.936;8.716;2022-09-09T22:38:07;11.10;75.50
11229;DHT22;5671;47.936;8.716;2022-09-09T23:34:16;10.40;78.60
11229;DHT22;5671;47.936;8.716;2022-09-09T23:37:08;10.40;78.70
11229;DHT22;5671;47.936;8.716;2022-09-09T23:40:02;10.40;77.40
11229;DHT22;5671;47.936;8.716;2022-09-09T23:43:16;10.40;76.90
11229;DHT22;5671;47.936;8.716;2022-09-09T23:46:26;10.30;77.60
